Aérodrome :
LOGIN :

S'inscrire | Disclaimer

   EN    FR    IT 

 










Légende :    VFR   VFR Marginal   IFR   IFR Intensif   IFR Très Intensif
Visi : 
Plafond : 
>= 8 km
>= 3000ft
5 à 8 km
1000 à 3000 ft
1500m à 5 km
500 à 1000 ft
800 à 1500m
200 à 500 ft
< 800m
< 200 ft
Symboles :   Orages  Brouillard  Fortes neiges  Fortes précipitations  Vent > 20 kt
SIGMETs :   Divers  Orages  Givrage  Turbulence  Onde Orograph.  Cendres Volcan.







- Altitude de l'aérodrome : 102 ft
- Code IATA : EXT
- Voir les cartes d'approche


EGTE - Exeter

DERNIER METAR :
  • 251350Z 35013G23KT 320V030 9999 VCSH SCT045 10/M03 Q1015

METARs EXPIRÉS :
  • 251320Z 36012KT 330V040 9999 SCT045 11/M03 Q1015
  • 251250Z 36012KT 330V040 9999 SCT045 09/M03 Q1015
  • 251220Z 36011KT 310V050 9999 SCT045 11/M02 Q1015
  • 251150Z 36012KT 320V030 9999 SCT048 09/M02 Q1015

TAF TAF EGTE
Valide du 25 à 12h jusqu'au 25 à 21h UTC


251103Z 2512/2521 33009KT 9999 SCT035
PROB30
TEMPO 2512/2521 9000 SHRA
PROB30
TEMPO 2512/2519 35015G25KT 7000 SHRAGS
Pas de NOTAMs connus pour ce terrain.



MET'MAP, la Météo Aéronautique d'un coup d'oeil ! - Copyright ORBIFLY Décembre 2007 - Disclaimer

ORBIFLY MET'MAP TEAM :

Programmation & Développement : Alexandra Zaïnal
Conception & Développement : Baudouin d'Aumeries
Co-Programmation & Développement : Marc-Olivier Méhu
Soutien technique & logistique : Manuel Goepfert

Contact : metmap@orbifly.com




SOURCES & CREDITS :

   NOAA